createdAt,value
2019-01-24T00:01:06.581Z,26.80
2019-01-24T00:03:36.556Z,28.17
2019-01-24T00:06:06.642Z,26.40
2019-01-24T00:08:36.983Z,27.17
2019-01-24T00:11:07.021Z,27.33
2019-01-24T00:13:37.089Z,26.00
2019-01-24T00:16:07.270Z,27.00
2019-01-24T00:18:37.275Z,25.87
2019-01-24T00:21:07.302Z,28.27
2019-01-24T00:23:37.308Z,24.47
2019-01-24T00:26:07.350Z,25.53
2019-01-24T00:28:37.265Z,25.47
2019-01-24T00:31:07.304Z,25.60
2019-01-24T00:33:37.294Z,24.60
2019-01-24T00:36:08.410Z,24.90
2019-01-24T00:38:38.393Z,25.87
2019-01-24T00:41:08.371Z,24.50
2019-01-24T00:43:38.329Z,24.03
2019-01-24T00:46:08.418Z,25.37
2019-01-24T00:48:38.333Z,23.43
2019-01-24T00:51:08.325Z,24.43
2019-01-24T00:53:38.274Z,24.17
2019-01-24T00:56:08.330Z,24.13
2019-01-24T00:58:38.309Z,22.90
2019-01-24T01:01:08.344Z,24.67
2019-01-24T01:03:38.365Z,24.97
2019-01-24T01:06:08.495Z,24.47
2019-01-24T01:08:38.434Z,24.43
2019-01-24T01:11:08.506Z,22.67
2019-01-24T01:13:38.463Z,23.17
2019-01-24T01:16:08.377Z,22.90
2019-01-24T01:18:38.359Z,23.80
2019-01-24T01:21:08.369Z,22.73
2019-01-24T01:23:38.314Z,22.40
2019-01-24T01:26:08.337Z,23.50
2019-01-24T01:28:38.245Z,23.50
2019-01-24T01:31:08.294Z,24.37
2019-01-24T01:33:38.231Z,22.17
2019-01-24T01:36:08.276Z,21.43
2019-01-24T01:38:38.268Z,22.53
2019-01-24T01:41:08.293Z,22.77
2019-01-24T01:43:38.297Z,23.70
2019-01-24T01:46:08.255Z,23.57
2019-01-24T01:48:39.191Z,24.17
2019-01-24T01:51:09.206Z,23.83
2019-01-24T01:53:39.058Z,24.43
2019-01-24T01:56:09.102Z,24.30
2019-01-24T01:58:39.041Z,22.97
2019-01-24T02:01:09.186Z,22.87
2019-01-24T02:03:39.213Z,23.27
2019-01-24T02:06:09.100Z,22.50
2019-01-24T02:08:39.058Z,23.50
2019-01-24T02:11:09.309Z,23.43
2019-01-24T02:13:39.272Z,22.90
2019-01-24T02:16:09.258Z,23.23
2019-01-24T02:18:39.278Z,23.67
2019-01-24T02:21:09.282Z,24.53
2019-01-24T02:23:39.163Z,22.57
2019-01-24T02:26:09.155Z,24.23
2019-01-24T02:28:39.059Z,22.63
2019-01-24T02:31:09.060Z,23.67
2019-01-24T02:33:39.010Z,23.60
2019-01-24T02:36:09.036Z,22.93
2019-01-24T02:38:38.948Z,22.50
2019-01-24T02:41:08.871Z,22.63
2019-01-24T02:43:38.718Z,24.33
2019-01-24T02:46:08.744Z,22.67
2019-01-24T02:48:38.586Z,22.70
2019-01-24T02:51:08.529Z,21.83
2019-01-24T02:53:38.404Z,21.40
2019-01-24T02:56:08.417Z,21.93
2019-01-24T02:58:38.412Z,25.17
2019-01-24T03:01:08.375Z,23.40
2019-01-24T03:03:38.304Z,23.30
2019-01-24T03:06:08.351Z,22.87
2019-01-24T03:08:38.382Z,22.33
2019-01-24T03:11:08.360Z,23.63
2019-01-24T03:13:38.400Z,23.00
2019-01-24T03:16:08.337Z,24.00
2019-01-24T03:18:38.425Z,23.90
2019-01-24T03:21:08.445Z,25.53
2019-01-24T03:23:38.394Z,24.63
2019-01-24T03:26:08.355Z,26.17
2019-01-24T03:28:38.262Z,23.23
2019-01-24T03:31:08.176Z,23.67
2019-01-24T03:33:38.211Z,23.33
2019-01-24T03:36:08.206Z,23.17
2019-01-24T03:38:38.076Z,24.50
2019-01-24T03:41:08.010Z,23.93
2019-01-24T03:43:41.031Z,24.10
2019-01-24T03:46:11.028Z,24.23
2019-01-24T03:48:41.073Z,22.73
2019-01-24T03:51:11.108Z,24.07
2019-01-24T03:53:41.107Z,24.77
2019-01-24T03:56:11.159Z,24.40
2019-01-24T03:58:41.202Z,24.37
2019-01-24T04:01:11.244Z,24.83
2019-01-24T04:03:41.413Z,25.57
2019-01-24T04:06:11.437Z,25.03
2019-01-24T04:08:41.432Z,25.30
2019-01-24T04:11:12.388Z,22.77
2019-01-24T04:13:42.328Z,24.70
2019-01-24T04:16:12.403Z,24.37
2019-01-24T04:18:42.421Z,25.03
2019-01-24T04:21:12.447Z,26.13
2019-01-24T04:23:42.470Z,24.57
2019-01-24T04:26:12.524Z,25.70
2019-01-24T04:28:42.422Z,26.23
2019-01-24T04:31:12.388Z,25.30
2019-01-24T04:33:42.401Z,24.17
2019-01-24T04:36:12.244Z,26.10
2019-01-24T04:38:42.220Z,25.13
2019-01-24T04:41:12.152Z,25.37
2019-01-24T04:43:42.096Z,25.43
2019-01-24T04:46:11.936Z,25.53
2019-01-24T04:48:42.069Z,25.17
2019-01-24T04:51:12.049Z,25.67
2019-01-24T04:53:41.959Z,24.80
2019-01-24T04:56:11.900Z,25.37
2019-01-24T04:58:41.794Z,25.67
2019-01-24T05:01:11.709Z,25.90
2019-01-24T05:03:41.619Z,26.30
2019-01-24T05:06:11.615Z,27.20
2019-01-24T05:08:41.478Z,26.67
2019-01-24T05:11:11.560Z,27.83
2019-01-24T05:13:41.559Z,25.93
2019-01-24T05:16:11.542Z,24.80
2019-01-24T05:18:41.453Z,27.13
2019-01-24T05:21:11.354Z,25.77
2019-01-24T05:23:41.299Z,28.17
2019-01-24T05:26:11.298Z,27.20
2019-01-24T05:28:41.330Z,27.87
2019-01-24T05:31:11.321Z,28.07
2019-01-24T05:33:41.332Z,27.73
2019-01-24T05:36:11.277Z,27.87
2019-01-24T05:38:41.230Z,26.70
2019-01-24T05:41:11.240Z,27.63
2019-01-24T05:43:41.178Z,27.63
2019-01-24T05:46:11.199Z,27.53
2019-01-24T05:48:41.242Z,27.40
2019-01-24T05:51:11.188Z,28.80
2019-01-24T05:53:41.077Z,27.00
2019-01-24T05:56:11.005Z,28.03
2019-01-24T05:58:40.878Z,27.47
2019-01-24T06:01:11.340Z,26.80
2019-01-24T06:03:41.190Z,25.67
2019-01-24T06:06:11.250Z,28.00
2019-01-24T06:08:41.211Z,27.83
2019-01-24T06:11:11.158Z,28.40
2019-01-24T06:13:41.016Z,28.27
2019-01-24T06:16:11.004Z,29.80
2019-01-24T06:18:40.921Z,28.03
2019-01-24T06:21:10.891Z,29.90
2019-01-24T06:23:40.962Z,28.77
2019-01-24T06:26:10.794Z,29.43
2019-01-24T06:28:40.825Z,26.73
2019-01-24T06:31:10.736Z,28.17
2019-01-24T06:33:40.738Z,27.03
2019-01-24T06:36:10.659Z,26.80
2019-01-24T06:38:40.576Z,28.43
2019-01-24T06:41:10.518Z,29.13
2019-01-24T06:43:40.530Z,26.80
2019-01-24T06:46:10.577Z,30.73
2019-01-24T06:48:40.485Z,29.90
2019-01-24T06:51:10.566Z,31.07
2019-01-24T06:53:40.558Z,30.37
2019-01-24T06:56:10.716Z,29.03
2019-01-24T06:58:40.693Z,31.33
2019-01-24T07:01:10.781Z,34.70
2019-01-24T07:03:40.710Z,31.87
2019-01-24T07:06:10.778Z,33.53
2019-01-24T07:08:40.841Z,32.37
2019-01-24T07:11:10.752Z,32.07
2019-01-24T07:13:41.125Z,32.17
2019-01-24T07:16:11.117Z,33.27
2019-01-24T07:18:41.014Z,33.73
2019-01-24T07:21:10.927Z,32.00
2019-01-24T07:23:40.971Z,31.90
2019-01-24T07:26:10.888Z,32.67
2019-01-24T07:28:41.015Z,32.43
2019-01-24T07:31:10.962Z,30.27
2019-01-24T07:33:40.912Z,31.67
2019-01-24T07:36:11.999Z,30.37
2019-01-24T07:38:42.117Z,31.17
2019-01-24T07:41:12.050Z,31.53
2019-01-24T07:43:41.990Z,30.93
2019-01-24T07:46:11.995Z,32.10
2019-01-24T07:48:42.025Z,31.60
2019-01-24T07:51:11.987Z,32.43
2019-01-24T07:53:42.003Z,31.53
2019-01-24T07:56:12.094Z,33.40
2019-01-24T07:58:42.094Z,32.33
2019-01-24T08:01:12.195Z,31.97
2019-01-24T08:03:42.122Z,32.43
2019-01-24T08:06:12.235Z,31.73
2019-01-24T08:08:42.266Z,31.00
2019-01-24T08:11:12.343Z,31.33
2019-01-24T08:13:42.411Z,31.47
2019-01-24T08:16:12.426Z,31.60
2019-01-24T08:18:42.471Z,31.37
2019-01-24T08:21:12.508Z,31.20
2019-01-24T08:23:42.576Z,31.73
2019-01-24T08:26:12.634Z,30.37
2019-01-24T08:28:42.638Z,30.90
2019-01-24T08:31:12.598Z,31.40
2019-01-24T08:33:42.535Z,33.07
2019-01-24T08:36:15.728Z,33.80
2019-01-24T08:38:44.487Z,33.93
2019-01-24T08:41:16.036Z,33.73
2019-01-24T08:43:46.091Z,34.53
2019-01-24T08:46:16.124Z,35.77
2019-01-24T08:48:46.031Z,36.77
2019-01-24T08:51:16.073Z,35.40
2019-01-24T08:53:46.093Z,33.47
2019-01-24T08:56:16.167Z,35.03
2019-01-24T08:58:46.128Z,34.73
2019-01-24T09:01:16.391Z,33.27
2019-01-24T09:03:46.386Z,35.93
2019-01-24T09:06:22.381Z,31.80
2019-01-24T09:08:48.088Z,31.00
2019-01-24T09:11:18.100Z,32.07
2019-01-24T09:13:48.039Z,31.20
2019-01-24T09:16:18.003Z,31.57
2019-01-24T09:18:47.972Z,34.50
2019-01-24T09:21:17.942Z,33.10
2019-01-24T09:23:47.932Z,33.53
2019-01-24T09:26:17.956Z,32.77
2019-01-24T09:28:47.915Z,33.80
2019-01-24T09:31:17.767Z,33.03
2019-01-24T09:33:47.689Z,32.83
2019-01-24T09:36:17.686Z,33.27
2019-01-24T09:38:47.634Z,32.33
2019-01-24T09:41:17.550Z,33.77
2019-01-24T09:43:47.500Z,31.23
2019-01-24T09:46:17.414Z,31.40
2019-01-24T09:48:47.319Z,31.20
2019-01-24T09:51:17.246Z,31.13
2019-01-24T09:53:47.270Z,29.50
2019-01-24T09:56:17.170Z,26.47
2019-01-24T09:58:47.153Z,23.10
2019-01-24T10:01:17.128Z,25.17
2019-01-24T10:03:47.131Z,24.83
2019-01-24T10:06:17.179Z,24.67
2019-01-24T10:08:47.176Z,25.73
2019-01-24T10:11:23.277Z,26.23
2019-01-24T10:13:48.928Z,25.20
2019-01-24T10:16:18.904Z,26.27
2019-01-24T10:18:48.827Z,26.10
2019-01-24T10:21:18.792Z,26.63
2019-01-24T10:23:48.752Z,28.10
2019-01-24T10:26:18.684Z,28.37
2019-01-24T10:28:48.662Z,28.90
2019-01-24T10:31:18.660Z,27.30
2019-01-24T10:33:48.538Z,26.23
2019-01-24T10:36:18.551Z,25.47
2019-01-24T10:38:48.585Z,25.80
2019-01-24T10:41:18.502Z,26.03
2019-01-24T10:43:48.474Z,24.73
2019-01-24T10:46:18.514Z,27.77
2019-01-24T10:48:48.654Z,27.20
2019-01-24T10:51:18.749Z,26.37
2019-01-24T10:53:48.620Z,27.57
2019-01-24T10:56:18.634Z,23.40
2019-01-24T10:58:48.717Z,22.80
2019-01-24T11:01:18.837Z,21.93
2019-01-24T11:03:48.836Z,23.83
2019-01-24T11:06:18.777Z,21.03
2019-01-24T11:08:48.752Z,22.07
2019-01-24T11:11:18.756Z,23.53
2019-01-24T11:13:49.236Z,22.93
2019-01-24T11:16:19.217Z,23.37
2019-01-24T11:18:49.207Z,22.63
2019-01-24T11:21:19.242Z,22.43
2019-01-24T11:23:49.288Z,23.43
2019-01-24T11:26:19.203Z,23.83
2019-01-24T11:28:49.339Z,23.50
2019-01-24T11:31:19.245Z,22.17
2019-01-24T11:33:49.254Z,22.17
2019-01-24T11:36:19.233Z,22.80
2019-01-24T11:38:49.193Z,22.63
2019-01-24T11:41:19.189Z,22.63
2019-01-24T11:43:49.140Z,23.00
2019-01-24T11:46:19.046Z,24.07
2019-01-24T11:48:49.130Z,22.23
2019-01-24T11:51:19.195Z,22.57
2019-01-24T11:53:53.046Z,22.50
2019-01-24T11:56:20.870Z,22.90
2019-01-24T11:58:50.921Z,22.77
2019-01-24T12:01:20.945Z,21.57
2019-01-24T12:03:50.920Z,20.70
2019-01-24T12:06:20.955Z,22.20
2019-01-24T12:08:50.857Z,21.80
2019-01-24T12:11:20.891Z,23.07
2019-01-24T12:13:51.056Z,22.43
2019-01-24T12:16:21.241Z,20.97
2019-01-24T12:18:51.157Z,21.07
2019-01-24T12:21:21.285Z,21.87
2019-01-24T12:23:51.209Z,22.37
2019-01-24T12:26:21.148Z,21.20
2019-01-24T12:28:51.112Z,21.10
2019-01-24T12:31:21.093Z,20.97
2019-01-24T12:33:51.117Z,20.90
2019-01-24T12:36:20.982Z,21.27
2019-01-24T12:38:50.948Z,21.60
2019-01-24T12:41:20.857Z,21.50
2019-01-24T12:43:52.313Z,20.60
2019-01-24T12:46:22.300Z,21.43
2019-01-24T12:48:52.311Z,21.27
2019-01-24T12:51:22.343Z,21.23
2019-01-24T12:53:53.946Z,19.17
2019-01-24T12:56:23.857Z,20.70
2019-01-24T13:01:29.995Z,19.93
2019-01-24T13:04:00.057Z,18.90
2019-01-24T13:06:29.979Z,19.27
2019-01-24T13:08:59.930Z,18.60
2019-01-24T13:11:29.878Z,18.57
2019-01-24T13:14:00.962Z,19.73
2019-01-24T13:16:31.065Z,18.23
2019-01-24T13:19:01.215Z,18.13
2019-01-24T13:21:31.178Z,18.87
2019-01-24T13:24:01.206Z,17.57
2019-01-24T13:26:31.137Z,17.57
2019-01-24T13:29:01.038Z,17.80
2019-01-24T13:31:30.991Z,17.87
2019-01-24T13:34:00.913Z,19.60
2019-01-24T13:36:30.886Z,17.80
2019-01-24T13:39:00.782Z,19.30
2019-01-24T13:41:31.933Z,18.63
2019-01-24T13:44:01.952Z,17.93
2019-01-24T13:46:31.837Z,19.63
2019-01-24T13:49:01.686Z,18.63
2019-01-24T13:51:31.871Z,17.50
2019-01-24T13:54:01.784Z,17.20
2019-01-24T13:56:31.845Z,17.23
2019-01-24T13:59:01.750Z,18.20
2019-01-24T14:01:31.715Z,18.73
2019-01-24T14:04:14.200Z,18.23
2019-01-24T14:06:44.114Z,18.70
2019-01-24T14:09:14.049Z,19.00
2019-01-24T14:11:44.745Z,18.07
2019-01-24T14:14:14.716Z,19.23
2019-01-24T14:16:44.860Z,19.10
2019-01-24T14:19:15.025Z,17.13
2019-01-24T14:21:45.006Z,18.90
2019-01-24T14:24:14.965Z,20.00
2019-01-24T14:26:45.953Z,19.23
2019-01-24T14:29:16.182Z,18.10
2019-01-24T14:31:46.167Z,18.13
2019-01-24T14:34:16.188Z,18.67
2019-01-24T14:36:46.267Z,19.10
2019-01-24T14:39:16.283Z,19.13
2019-01-24T14:41:46.156Z,20.13
2019-01-24T14:44:16.267Z,19.00
2019-01-24T14:46:46.146Z,20.17
2019-01-24T14:49:16.123Z,20.77
2019-01-24T14:51:46.076Z,21.87
2019-01-24T14:54:15.925Z,22.30
2019-01-24T14:56:46.948Z,22.87
2019-01-24T14:59:16.821Z,21.43
2019-01-24T15:01:46.849Z,21.60
2019-01-24T15:04:18.111Z,21.03
2019-01-24T15:06:48.064Z,20.83
2019-01-24T15:09:18.083Z,19.70
2019-01-24T15:11:48.160Z,21.73
2019-01-24T15:14:19.502Z,20.67
2019-01-24T15:16:49.382Z,22.40
2019-01-24T15:19:19.290Z,21.60
2019-01-24T15:21:49.344Z,21.80
2019-01-24T15:24:19.374Z,22.80
2019-01-24T15:26:49.282Z,21.50
2019-01-24T15:29:19.231Z,22.10
2019-01-24T15:31:49.158Z,23.13
2019-01-24T15:34:19.128Z,21.60
2019-01-24T15:36:49.046Z,22.60
2019-01-24T15:39:19.021Z,20.30
2019-01-24T15:41:48.967Z,21.57
2019-01-24T15:44:18.895Z,22.13
2019-01-24T15:46:50.115Z,21.87
2019-01-24T15:49:20.265Z,21.87
2019-01-24T15:51:50.175Z,22.03
2019-01-24T15:54:20.210Z,19.50
2019-01-24T15:56:50.108Z,20.47
2019-01-24T15:59:20.188Z,22.20
2019-01-24T16:01:50.170Z,22.53
2019-01-24T16:04:20.148Z,23.30
2019-01-24T16:06:50.238Z,22.20
2019-01-24T16:09:20.141Z,19.87
2019-01-24T16:11:50.178Z,21.40
2019-01-24T16:14:20.219Z,20.80
2019-01-24T16:16:50.282Z,21.63
2019-01-24T16:19:20.265Z,21.80
2019-01-24T16:21:50.210Z,21.90
2019-01-24T16:24:20.204Z,23.83
2019-01-24T16:26:50.142Z,24.23
2019-01-24T16:29:20.089Z,24.97
2019-01-24T16:31:50.065Z,28.57
2019-01-24T16:34:20.078Z,31.30
2019-01-24T16:36:49.984Z,32.93
2019-01-24T16:39:19.916Z,34.77
2019-01-24T16:41:49.871Z,35.80
2019-01-24T16:44:19.735Z,34.90
2019-01-24T16:46:49.630Z,37.00
2019-01-24T16:49:19.558Z,39.63
2019-01-24T16:51:49.557Z,38.03
2019-01-24T16:54:19.475Z,36.30
2019-01-24T16:56:49.462Z,35.30
2019-01-24T16:59:20.483Z,35.53
2019-01-24T17:01:50.462Z,33.80
2019-01-24T17:04:20.466Z,34.40
2019-01-24T17:06:50.359Z,34.13
2019-01-24T17:09:20.336Z,33.03
2019-01-24T17:11:50.315Z,34.10
2019-01-24T17:14:22.411Z,32.53
2019-01-24T17:16:52.200Z,32.57
2019-01-24T17:19:22.144Z,30.10
2019-01-24T17:21:52.591Z,34.07
2019-01-24T17:24:22.672Z,35.37
2019-01-24T17:26:52.572Z,34.30
2019-01-24T17:29:22.606Z,34.83
2019-01-24T17:31:52.525Z,37.20
2019-01-24T17:34:22.468Z,35.37
2019-01-24T17:36:52.462Z,35.47
2019-01-24T17:39:22.356Z,37.23
2019-01-24T17:41:52.327Z,36.97
2019-01-24T17:44:22.356Z,35.97
2019-01-24T17:46:52.293Z,38.40
2019-01-24T17:49:22.339Z,35.60
2019-01-24T17:51:52.274Z,39.23
2019-01-24T17:54:22.320Z,37.47
2019-01-24T17:56:52.185Z,38.70
2019-01-24T17:59:22.201Z,36.93
2019-01-24T18:01:52.221Z,38.60
2019-01-24T18:04:22.266Z,39.30
2019-01-24T18:06:52.270Z,37.87
2019-01-24T18:09:22.357Z,35.67
2019-01-24T18:11:52.280Z,34.63
2019-01-24T18:14:22.317Z,36.73
2019-01-24T18:16:52.597Z,30.13
2019-01-24T18:19:22.696Z,33.83
2019-01-24T18:21:52.750Z,34.80
2019-01-24T18:24:22.687Z,36.60
2019-01-24T18:26:52.655Z,37.27
2019-01-24T18:29:22.662Z,34.23
2019-01-24T18:31:52.676Z,37.57
2019-01-24T18:34:22.656Z,40.03
2019-01-24T18:36:52.708Z,40.07
2019-01-24T18:39:22.637Z,41.20
2019-01-24T18:41:52.602Z,39.97
2019-01-24T18:44:22.595Z,37.13
2019-01-24T18:46:52.742Z,39.30
2019-01-24T18:49:22.755Z,36.83
2019-01-24T18:51:52.818Z,38.23
2019-01-24T18:54:22.706Z,38.43
2019-01-24T18:56:52.636Z,38.37
2019-01-24T18:59:22.668Z,36.00
2019-01-24T19:01:52.592Z,38.33
2019-01-24T19:04:22.831Z,49.27
2019-01-24T19:06:53.187Z,38.97
2019-01-24T19:09:23.411Z,37.27
2019-01-24T19:11:53.466Z,37.23
2019-01-24T19:14:23.702Z,35.10
2019-01-24T19:16:53.756Z,35.80
2019-01-24T19:19:23.806Z,34.97
2019-01-24T19:21:53.736Z,35.37
2019-01-24T19:24:23.768Z,34.17
2019-01-24T19:26:53.938Z,36.93
2019-01-24T19:29:25.096Z,35.00
2019-01-24T19:31:55.206Z,36.60
2019-01-24T19:34:25.242Z,35.40
2019-01-24T19:36:55.322Z,33.40
2019-01-24T19:39:25.270Z,33.07
2019-01-24T19:41:55.351Z,32.70
2019-01-24T19:44:25.280Z,34.47
2019-01-24T19:46:55.182Z,34.47
2019-01-24T19:49:25.142Z,34.00
2019-01-24T19:51:55.178Z,33.57
2019-01-24T19:54:25.221Z,33.83
2019-01-24T19:56:56.252Z,35.33
2019-01-24T19:59:26.202Z,34.13
2019-01-24T20:01:56.307Z,33.00
2019-01-24T20:04:26.361Z,34.07
2019-01-24T20:06:56.395Z,24.10
2019-01-24T20:09:26.447Z,32.50
2019-01-24T20:11:56.686Z,34.00
2019-01-24T20:14:26.632Z,34.80
2019-01-24T20:16:56.680Z,33.23
2019-01-24T20:19:26.759Z,34.13
2019-01-24T20:21:56.760Z,35.23
2019-01-24T20:24:26.732Z,35.13
2019-01-24T20:26:56.743Z,33.93
2019-01-24T20:29:26.704Z,35.30
2019-01-24T20:31:56.771Z,36.00
2019-01-24T20:34:26.781Z,34.63
2019-01-24T20:36:56.709Z,32.10
2019-01-24T20:39:26.747Z,31.97
2019-01-24T20:41:56.790Z,31.57
2019-01-24T20:44:26.795Z,34.40
2019-01-24T20:46:56.751Z,34.37
2019-01-24T20:49:26.730Z,31.53
2019-01-24T20:51:56.793Z,32.23
2019-01-24T20:54:26.776Z,32.70
2019-01-24T20:56:56.663Z,30.03
2019-01-24T20:59:26.593Z,28.67
2019-01-24T21:01:56.584Z,27.83
2019-01-24T21:04:26.501Z,26.17
2019-01-24T21:06:56.500Z,26.70
2019-01-24T21:09:26.414Z,25.20
2019-01-24T21:11:56.470Z,26.27
2019-01-24T21:14:26.658Z,26.50
2019-01-24T21:16:56.651Z,25.03
2019-01-24T21:19:26.697Z,24.70
2019-01-24T21:21:56.706Z,24.97
2019-01-24T21:24:26.672Z,19.27
2019-01-24T21:26:56.509Z,24.17
2019-01-24T21:29:26.586Z,25.37
2019-01-24T21:31:56.450Z,23.87
2019-01-24T21:34:26.512Z,24.53
2019-01-24T21:36:56.591Z,25.17
2019-01-24T21:39:26.709Z,24.60
2019-01-24T21:41:56.654Z,26.40
2019-01-24T21:44:26.725Z,26.13
2019-01-24T21:46:56.670Z,25.73
2019-01-24T21:49:26.716Z,26.03
2019-01-24T21:51:56.670Z,26.43
2019-01-24T21:54:26.679Z,26.60
2019-01-24T21:56:56.746Z,25.40
2019-01-24T21:59:26.661Z,27.73
2019-01-24T22:01:56.607Z,26.20
2019-01-24T22:04:26.611Z,27.70
2019-01-24T22:06:56.610Z,27.23
2019-01-24T22:09:29.231Z,27.17
2019-01-24T22:11:58.214Z,27.23
2019-01-24T22:14:28.128Z,27.60
2019-01-24T22:17:00.846Z,26.63
2019-01-24T22:19:30.865Z,26.43
2019-01-24T22:22:04.278Z,27.50
2019-01-24T22:24:34.131Z,27.20
2019-01-24T22:27:04.390Z,27.60
2019-01-24T22:29:34.364Z,27.13
2019-01-24T22:32:04.592Z,29.13
2019-01-24T22:34:34.558Z,27.17
2019-01-24T22:37:04.568Z,28.40
2019-01-24T22:39:36.734Z,27.90
2019-01-24T22:42:06.434Z,24.90
2019-01-24T22:44:36.328Z,26.53
2019-01-24T22:47:06.308Z,28.53
2019-01-24T22:49:36.281Z,28.27
2019-01-24T22:52:06.429Z,27.40
2019-01-24T22:54:36.325Z,28.23
2019-01-24T22:57:06.333Z,26.03
2019-01-24T22:59:36.350Z,29.30
2019-01-24T23:02:23.501Z,28.67
2019-01-24T23:04:53.449Z,27.77
2019-01-24T23:07:23.618Z,27.30
2019-01-24T23:09:53.681Z,28.10
2019-01-24T23:12:23.723Z,27.17
2019-01-24T23:14:53.637Z,28.67
2019-01-24T23:17:23.663Z,27.53
2019-01-24T23:19:53.498Z,28.93
2019-01-24T23:22:23.450Z,28.20
2019-01-24T23:24:53.415Z,29.27
2019-01-24T23:27:23.455Z,25.23
2019-01-24T23:29:53.363Z,26.20
2019-01-24T23:32:23.266Z,26.57
2019-01-24T23:34:53.147Z,26.40
2019-01-24T23:37:23.000Z,26.67
2019-01-24T23:39:53.599Z,26.20
2019-01-24T23:42:23.696Z,25.80
2019-01-24T23:44:53.844Z,27.80
2019-01-24T23:47:23.832Z,26.10
2019-01-24T23:49:53.809Z,27.43
2019-01-24T23:52:23.690Z,24.50
2019-01-24T23:54:53.646Z,24.90
2019-01-24T23:57:24.038Z,24.90
2019-01-24T23:59:54.114Z,26.73
